Time,TemperatureF,DewpointF,PressureIn,WindDirection,WindDirectionDegrees,WindSpeedMPH,WindSpeedGustMPH,Humidity,HourlyPrecipIn,Conditions,Clouds,dailyrainin,SoftwareType,DateUTC
2013-12-02 00:02:00,21.0,18.0,-100.00,ENE,75,14.0,17.0,89,0.00,,,0.00,,2013-12-02 06:02:00,
2013-12-02 00:12:00,21.0,18.0,-100.00,ENE,75,14.0,17.0,89,0.00,,,0.00,,2013-12-02 06:12:00,
2013-12-02 00:22:00,21.0,18.0,-100.00,ENE,75,14.0,17.0,89,0.00,,,0.00,,2013-12-02 06:22:00,
2013-12-02 00:52:00,21.0,18.0,-100.00,ENE,70,13.0,16.0,89,0.00,,,0.00,,2013-12-02 06:52:00,
2013-12-02 01:21:00,21.0,18.0,-100.00,ENE,75,14.0,19.0,89,0.00,,,0.00,,2013-12-02 07:21:00,
2013-12-02 01:52:00,21.0,19.0,-100.00,ENE,70,15.0,19.0,89,0.00,,,0.00,,2013-12-02 07:52:00,
2013-12-02 02:52:00,22.0,19.0,-100.00,ENE,65,13.0,16.0,89,0.00,,,0.00,,2013-12-02 08:52:00,
2013-12-02 03:02:00,22.0,19.0,-100.00,ENE,65,13.0,16.0,89,0.00,,,0.00,,2013-12-02 09:02:00,
2013-12-02 03:22:00,22.0,19.0,-100.00,ENE,70,14.0,16.0,89,0.00,,,0.00,,2013-12-02 09:22:00,
2013-12-02 05:52:00,22.0,19.0,-100.00,ENE,70,14.0,17.0,88,0.00,,,0.00,,2013-12-02 11:52:00,
2013-12-02 06:52:00,22.0,19.0,-100.00,ENE,60,13.0,17.0,87,0.00,,,0.00,,2013-12-02 12:52:00,
2013-12-02 08:11:00,22.0,18.0,-100.00,ENE,60,14.0,18.0,86,0.00,,,0.00,,2013-12-02 14:11:00,
2013-12-02 08:22:00,22.0,18.0,-100.00,ENE,60,14.0,18.0,86,0.00,,,0.00,,2013-12-02 14:22:00,
2013-12-02 08:42:00,22.0,19.0,-100.00,ENE,60,14.0,17.0,87,0.00,,,0.00,,2013-12-02 14:42:00,
2013-12-02 08:52:00,22.0,19.0,-100.00,ENE,60,14.0,17.0,87,0.00,,,0.00,,2013-12-02 14:52:00,
2013-12-02 09:02:00,22.0,19.0,-100.00,ENE,60,14.0,17.0,87,0.00,,,0.00,,2013-12-02 15:02:00,
2013-12-02 09:43:00,22.0,19.0,-100.00,ENE,60,14.0,17.0,87,0.00,,,0.00,,2013-12-02 15:43:00,
2013-12-02 09:53:00,22.0,19.0,-100.00,ENE,60,14.0,17.0,87,0.00,,,0.00,,2013-12-02 15:53:00,
2013-12-02 10:03:00,22.0,19.0,-100.00,ENE,60,14.0,17.0,87,0.00,,,0.00,,2013-12-02 16:03:00,
2013-12-02 10:43:00,23.0,19.0,-100.00,NE,50,14.0,18.0,87,0.00,,,0.00,,2013-12-02 16:43:00,
2013-12-02 10:53:00,23.0,19.0,-100.00,NE,50,14.0,18.0,87,0.00,,,0.00,,2013-12-02 16:53:00,
2013-12-02 11:42:00,24.0,21.0,-100.00,NE,55,15.0,19.0,86,0.00,,,0.00,,2013-12-02 17:42:00,
2013-12-02 12:12:00,24.0,21.0,-100.00,NE,50,15.0,19.0,85,0.00,,,0.00,,2013-12-02 18:12:00,
2013-12-02 12:22:00,24.0,21.0,-100.00,NE,50,15.0,19.0,85,0.00,,,0.00,,2013-12-02 18:22:00,
2013-12-02 12:32:00,24.0,21.0,-100.00,NE,50,15.0,19.0,85,0.00,,,0.00,,2013-12-02 18:32:00,
2013-12-02 12:42:00,24.0,21.0,-100.00,NE,50,15.0,19.0,85,0.00,,,0.00,,2013-12-02 18:42:00,
2013-12-02 14:21:00,26.0,23.0,-100.00,NNE,30,14.0,19.0,87,0.00,,,0.00,,2013-12-02 20:21:00,
2013-12-02 14:32:00,26.0,23.0,-100.00,NNE,30,14.0,19.0,87,0.00,,,0.00,,2013-12-02 20:32:00,
2013-12-02 14:52:00,26.0,23.0,-100.00,NNE,20,11.0,17.0,88,0.00,,,0.00,,2013-12-02 20:52:00,
2013-12-02 15:02:00,26.0,23.0,-100.00,NNE,20,11.0,17.0,88,0.00,,,0.00,,2013-12-02 21:02:00,
2013-12-02 15:43:00,26.0,23.0,-100.00,NNE,25,14.0,18.0,87,0.00,,,0.00,,2013-12-02 21:43:00,
2013-12-02 15:53:00,26.0,23.0,-100.00,NNE,25,14.0,18.0,87,0.00,,,0.00,,2013-12-02 21:53:00,
2013-12-02 16:03:00,26.0,23.0,-100.00,NNE,25,14.0,18.0,87,0.00,,,0.00,,2013-12-02 22:03:00,
2013-12-02 16:23:00,26.0,23.0,-100.00,NNE,25,12.0,17.0,86,0.00,,,0.00,,2013-12-02 22:23:00,
2013-12-02 16:33:00,26.0,23.0,-100.00,NNE,25,12.0,17.0,86,0.00,,,0.00,,2013-12-02 22:33:00,
2013-12-02 16:43:00,26.0,23.0,-100.00,NNE,25,12.0,17.0,86,0.00,,,0.00,,2013-12-02 22:43:00,
2013-12-02 16:53:00,26.0,23.0,-100.00,NNE,25,12.0,17.0,86,0.00,,,0.00,,2013-12-02 22:53:00,